sensor_id;sensor_type;location;lat;lon;timestamp;pressure;altitude;pressure_sealevel;temperature;humidity
18137;BME280;9194;42.632;23.298;2024-01-25T00:03:37;93111.09;;;1.37;100.00
18137;BME280;9194;42.632;23.298;2024-01-25T00:08:39;93097.41;;;1.62;100.00
18137;BME280;9194;42.632;23.298;2024-01-25T00:13:40;93086.19;;;1.63;100.00
18137;BME280;9194;42.632;23.298;2024-01-25T00:18:42;93064.03;;;1.54;100.00
18137;BME280;9194;42.632;23.298;2024-01-25T00:23:44;93014.91;;;1.41;100.00
18137;BME280;9194;42.632;23.298;2024-01-25T00:28:45;92972.28;;;1.32;100.00
18137;BME280;9194;42.632;23.298;2024-01-25T00:33:46;92971.16;;;1.34;100.00
18137;BME280;9194;42.632;23.298;2024-01-25T00:38:49;92968.06;;;2.60;100.00
18137;BME280;9194;42.632;23.298;2024-01-25T00:43:50;92955.84;;;4.75;100.00
18137;BME280;9194;42.632;23.298;2024-01-25T00:48:52;92987.31;;;4.71;100.00
18137;BME280;9194;42.632;23.298;2024-01-25T00:53:54;92993.19;;;3.36;100.00
18137;BME280;9194;42.632;23.298;2024-01-25T00:58:55;92986.66;;;2.70;100.00
18137;BME280;9194;42.632;23.298;2024-01-25T01:03:58;92981.53;;;3.09;100.00
18137;BME280;9194;42.632;23.298;2024-01-25T01:08:59;92979.53;;;4.04;100.00
18137;BME280;9194;42.632;23.298;2024-01-25T01:14:01;92966.78;;;4.92;100.00
18137;BME280;9194;42.632;23.298;2024-01-25T01:19:02;92965.09;;;5.50;100.00
18137;BME280;9194;42.632;23.298;2024-01-25T01:24:07;92975.56;;;4.16;98.08
18137;BME280;9194;42.632;23.298;2024-01-25T01:29:09;92942.69;;;3.35;100.00
18137;BME280;9194;42.632;23.298;2024-01-25T01:34:10;92934.19;;;4.18;100.00
18137;BME280;9194;42.632;23.298;2024-01-25T01:39:13;92926.69;;;5.25;100.00
18137;BME280;9194;42.632;23.298;2024-01-25T01:44:15;92916.50;;;5.74;100.00
18137;BME280;9194;42.632;23.298;2024-01-25T01:49:16;92920.03;;;5.73;100.00
18137;BME280;9194;42.632;23.298;2024-01-25T01:54:18;92913.22;;;5.66;100.00
18137;BME280;9194;42.632;23.298;2024-01-25T01:59:20;92916.81;;;5.65;100.00
18137;BME280;9194;42.632;23.298;2024-01-25T02:04:21;92925.06;;;6.24;100.00
18137;BME280;9194;42.632;23.298;2024-01-25T02:09:23;92908.63;;;6.04;100.00
18137;BME280;9194;42.632;23.298;2024-01-25T02:14:24;92895.19;;;5.87;100.00
18137;BME280;9194;42.632;23.298;2024-01-25T02:19:25;92900.78;;;6.18;100.00
18137;BME280;9194;42.632;23.298;2024-01-25T02:24:27;92918.50;;;6.22;100.00
18137;BME280;9194;42.632;23.298;2024-01-25T02:29:28;92902.38;;;6.19;100.00
18137;BME280;9194;42.632;23.298;2024-01-25T02:34:29;92892.72;;;6.28;100.00
18137;BME280;9194;42.632;23.298;2024-01-25T02:39:30;92886.44;;;6.44;100.00
18137;BME280;9194;42.632;23.298;2024-01-25T02:44:32;92895.13;;;6.36;100.00
18137;BME280;9194;42.632;23.298;2024-01-25T02:49:33;92869.28;;;6.36;100.00
18137;BME280;9194;42.632;23.298;2024-01-25T02:54:34;92833.34;;;6.13;100.00
18137;BME280;9194;42.632;23.298;2024-01-25T02:59:37;92853.16;;;6.06;100.00
18137;BME280;9194;42.632;23.298;2024-01-25T03:04:38;92863.88;;;6.31;100.00
18137;BME280;9194;42.632;23.298;2024-01-25T03:09:40;92894.06;;;6.52;100.00
18137;BME280;9194;42.632;23.298;2024-01-25T03:14:41;92882.97;;;6.30;100.00
18137;BME280;9194;42.632;23.298;2024-01-25T03:19:42;92864.69;;;6.32;100.00
18137;BME280;9194;42.632;23.298;2024-01-25T03:24:43;92852.47;;;6.19;100.00
18137;BME280;9194;42.632;23.298;2024-01-25T03:29:45;92841.50;;;6.10;100.00
18137;BME280;9194;42.632;23.298;2024-01-25T03:34:46;92857.81;;;6.17;100.00
18137;BME280;9194;42.632;23.298;2024-01-25T03:39:47;92844.69;;;6.47;100.00
18137;BME280;9194;42.632;23.298;2024-01-25T03:44:48;92804.66;;;6.36;100.00
18137;BME280;9194;42.632;23.298;2024-01-25T03:49:50;92806.84;;;6.33;100.00
18137;BME280;9194;42.632;23.298;2024-01-25T03:54:51;92824.03;;;6.19;100.00
18137;BME280;9194;42.632;23.298;2024-01-25T03:59:52;92804.38;;;6.25;100.00
18137;BME280;9194;42.632;23.298;2024-01-25T04:04:53;92788.84;;;6.59;100.00
18137;BME280;9194;42.632;23.298;2024-01-25T04:09:55;92824.00;;;6.47;100.00
18137;BME280;9194;42.632;23.298;2024-01-25T04:14:56;92819.72;;;6.67;100.00
18137;BME280;9194;42.632;23.298;2024-01-25T04:19:57;92817.06;;;6.54;100.00
18137;BME280;9194;42.632;23.298;2024-01-25T04:24:58;92820.50;;;6.27;100.00
18137;BME280;9194;42.632;23.298;2024-01-25T04:30:01;92795.88;;;6.31;99.67
18137;BME280;9194;42.632;23.298;2024-01-25T04:35:03;92775.66;;;6.06;99.63
18137;BME280;9194;42.632;23.298;2024-01-25T04:40:05;92803.94;;;6.14;96.29
18137;BME280;9194;42.632;23.298;2024-01-25T04:45:07;92830.59;;;6.49;90.27
18137;BME280;9194;42.632;23.298;2024-01-25T04:50:09;92851.00;;;6.38;92.30
18137;BME280;9194;42.632;23.298;2024-01-25T04:55:10;92841.88;;;6.42;91.37
18137;BME280;9194;42.632;23.298;2024-01-25T05:00:12;92860.91;;;6.00;93.70
18137;BME280;9194;42.632;23.298;2024-01-25T05:05:13;92872.72;;;5.88;93.99
18137;BME280;9194;42.632;23.298;2024-01-25T05:10:14;92894.16;;;6.09;89.31
18137;BME280;9194;42.632;23.298;2024-01-25T05:15:16;92865.78;;;5.88;90.53
18137;BME280;9194;42.632;23.298;2024-01-25T05:20:17;92905.41;;;6.02;89.72
18137;BME280;9194;42.632;23.298;2024-01-25T05:25:19;92924.63;;;5.93;91.25
18137;BME280;9194;42.632;23.298;2024-01-25T05:30:27;92920.53;;;5.84;92.44
18137;BME280;9194;42.632;23.298;2024-01-25T05:35:29;92904.72;;;5.51;95.19
18137;BME280;9194;42.632;23.298;2024-01-25T05:40:30;92904.13;;;5.70;91.13
18137;BME280;9194;42.632;23.298;2024-01-25T05:45:34;92917.00;;;5.49;96.31
18137;BME280;9194;42.632;23.298;2024-01-25T05:50:36;92946.50;;;5.40;96.61
18137;BME280;9194;42.632;23.298;2024-01-25T05:55:37;92940.03;;;5.29;97.42
18137;BME280;9194;42.632;23.298;2024-01-25T06:00:39;92951.69;;;5.25;98.86
18137;BME280;9194;42.632;23.298;2024-01-25T06:05:40;92949.78;;;5.12;100.00
18137;BME280;9194;42.632;23.298;2024-01-25T06:10:42;92959.91;;;5.14;100.00
18137;BME280;9194;42.632;23.298;2024-01-25T06:15:44;92955.19;;;5.17;100.00
18137;BME280;9194;42.632;23.298;2024-01-25T06:20:45;92963.75;;;5.18;98.90
18137;BME280;9194;42.632;23.298;2024-01-25T06:25:46;92977.28;;;5.05;100.00
18137;BME280;9194;42.632;23.298;2024-01-25T06:30:48;92964.25;;;5.13;100.00
18137;BME280;9194;42.632;23.298;2024-01-25T06:35:49;92961.06;;;4.96;100.00
18137;BME280;9194;42.632;23.298;2024-01-25T06:40:50;92953.22;;;5.19;98.08
18137;BME280;9194;42.632;23.298;2024-01-25T06:45:52;92957.31;;;5.28;96.54
18137;BME280;9194;42.632;23.298;2024-01-25T06:50:53;92964.72;;;5.17;97.17
18137;BME280;9194;42.632;23.298;2024-01-25T06:55:54;92949.84;;;5.19;95.65
18137;BME280;9194;42.632;23.298;2024-01-25T07:00:55;92976.88;;;5.37;94.60
18137;BME280;9194;42.632;23.298;2024-01-25T07:05:57;92974.50;;;5.57;91.31
18137;BME280;9194;42.632;23.298;2024-01-25T07:10:58;92983.28;;;5.42;92.43
18137;BME280;9194;42.632;23.298;2024-01-25T07:16:02;92972.78;;;5.28;93.32
18137;BME280;9194;42.632;23.298;2024-01-25T07:21:04;92939.34;;;5.20;94.74
18137;BME280;9194;42.632;23.298;2024-01-25T07:26:05;92934.09;;;5.28;93.51
18137;BME280;9194;42.632;23.298;2024-01-25T07:31:07;92958.63;;;5.24;91.99
18137;BME280;9194;42.632;23.298;2024-01-25T07:36:08;92954.19;;;5.33;90.55
18137;BME280;9194;42.632;23.298;2024-01-25T07:41:09;92951.84;;;5.38;91.64
18137;BME280;9194;42.632;23.298;2024-01-25T07:46:10;92961.28;;;5.46;90.88
18137;BME280;9194;42.632;23.298;2024-01-25T07:51:13;92974.03;;;5.32;93.32
18137;BME280;9194;42.632;23.298;2024-01-25T07:56:14;92986.13;;;5.47;90.27
18137;BME280;9194;42.632;23.298;2024-01-25T08:01:19;92976.63;;;5.68;89.32
18137;BME280;9194;42.632;23.298;2024-01-25T08:06:21;92991.63;;;5.79;86.42
18137;BME280;9194;42.632;23.298;2024-01-25T08:11:22;92970.97;;;5.79;86.38
18137;BME280;9194;42.632;23.298;2024-01-25T08:16:24;92971.38;;;5.62;88.18
18137;BME280;9194;42.632;23.298;2024-01-25T08:21:25;92956.28;;;5.80;84.68
18137;BME280;9194;42.632;23.298;2024-01-25T08:26:27;92959.09;;;5.85;83.22
18137;BME280;9194;42.632;23.298;2024-01-25T08:31:28;92953.88;;;5.78;87.90
18137;BME280;9194;42.632;23.298;2024-01-25T08:36:29;92939.75;;;5.96;81.17
18137;BME280;9194;42.632;23.298;2024-01-25T08:41:30;92958.81;;;5.95;80.99
18137;BME280;9194;42.632;23.298;2024-01-25T08:46:32;92960.25;;;5.97;83.51
18137;BME280;9194;42.632;23.298;2024-01-25T08:51:33;92970.50;;;5.91;82.86
18137;BME280;9194;42.632;23.298;2024-01-25T08:56:34;92982.28;;;5.93;83.63
18137;BME280;9194;42.632;23.298;2024-01-25T09:01:35;92985.59;;;6.08;86.73
18137;BME280;9194;42.632;23.298;2024-01-25T09:06:37;92977.28;;;6.41;84.39
18137;BME280;9194;42.632;23.298;2024-01-25T09:11:38;92989.75;;;6.52;82.86
18137;BME280;9194;42.632;23.298;2024-01-25T09:16:39;92977.63;;;6.59;81.84
18137;BME280;9194;42.632;23.298;2024-01-25T09:21:41;92986.44;;;6.15;84.83
18137;BME280;9194;42.632;23.298;2024-01-25T09:26:42;92973.50;;;6.37;84.52
18137;BME280;9194;42.632;23.298;2024-01-25T09:31:43;92977.16;;;6.21;85.61
18137;BME280;9194;42.632;23.298;2024-01-25T09:36:45;92973.94;;;6.40;85.94
18137;BME280;9194;42.632;23.298;2024-01-25T09:41:46;92959.00;;;6.64;81.39
18137;BME280;9194;42.632;23.298;2024-01-25T09:46:47;92951.84;;;6.38;83.87
18137;BME280;9194;42.632;23.298;2024-01-25T09:51:51;92938.38;;;6.49;82.58
18137;BME280;9194;42.632;23.298;2024-01-25T09:56:53;92920.22;;;6.70;81.51
18137;BME280;9194;42.632;23.298;2024-01-25T10:01:56;92928.50;;;6.59;81.95
18137;BME280;9194;42.632;23.298;2024-01-25T10:06:58;92949.69;;;6.20;85.59
18137;BME280;9194;42.632;23.298;2024-01-25T10:12:00;92923.91;;;6.54;84.07
18137;BME280;9194;42.632;23.298;2024-01-25T10:17:01;92903.59;;;6.51;86.15
18137;BME280;9194;42.632;23.298;2024-01-25T10:22:06;92897.06;;;6.55;82.55
18137;BME280;9194;42.632;23.298;2024-01-25T10:27:08;92913.69;;;6.74;82.59
18137;BME280;9194;42.632;23.298;2024-01-25T10:32:09;92907.19;;;7.39;75.31
18137;BME280;9194;42.632;23.298;2024-01-25T10:37:13;92895.47;;;6.95;77.57
18137;BME280;9194;42.632;23.298;2024-01-25T10:42:14;92896.03;;;6.84;77.01
18137;BME280;9194;42.632;23.298;2024-01-25T10:47:17;92898.25;;;6.94;77.79
18137;BME280;9194;42.632;23.298;2024-01-25T10:52:18;92868.44;;;7.11;76.29
18137;BME280;9194;42.632;23.298;2024-01-25T10:57:21;92896.25;;;6.89;74.30
18137;BME280;9194;42.632;23.298;2024-01-25T11:02:23;92884.97;;;7.04;73.85
18137;BME280;9194;42.632;23.298;2024-01-25T11:07:25;92863.84;;;7.00;72.36
18137;BME280;9194;42.632;23.298;2024-01-25T11:12:26;92861.47;;;6.98;70.56
18137;BME280;9194;42.632;23.298;2024-01-25T11:17:31;92826.19;;;6.91;72.24
18137;BME280;9194;42.632;23.298;2024-01-25T11:22:35;92829.06;;;7.29;69.92
18137;BME280;9194;42.632;23.298;2024-01-25T11:27:36;92816.22;;;6.88;73.72
18137;BME280;9194;42.632;23.298;2024-01-25T11:32:37;92822.72;;;6.71;75.58
18137;BME280;9194;42.632;23.298;2024-01-25T11:37:39;92835.22;;;6.26;79.59
18137;BME280;9194;42.632;23.298;2024-01-25T11:42:42;92828.41;;;6.18;83.43
18137;BME280;9194;42.632;23.298;2024-01-25T11:47:43;92836.56;;;6.15;83.05
18137;BME280;9194;42.632;23.298;2024-01-25T11:52:45;92830.44;;;6.23;79.67
18137;BME280;9194;42.632;23.298;2024-01-25T11:57:46;92823.84;;;6.21;79.06
18137;BME280;9194;42.632;23.298;2024-01-25T12:02:48;92827.06;;;6.29;79.29
18137;BME280;9194;42.632;23.298;2024-01-25T12:07:49;92840.53;;;6.46;79.66
18137;BME280;9194;42.632;23.298;2024-01-25T12:12:50;92842.97;;;6.26;81.42
18137;BME280;9194;42.632;23.298;2024-01-25T12:17:52;92835.63;;;6.30;81.76
18137;BME280;9194;42.632;23.298;2024-01-25T12:22:53;92833.81;;;6.24;77.14
18137;BME280;9194;42.632;23.298;2024-01-25T12:27:55;92808.78;;;5.96;81.75
18137;BME280;9194;42.632;23.298;2024-01-25T12:32:56;92820.75;;;5.76;82.65
18137;BME280;9194;42.632;23.298;2024-01-25T12:37:57;92820.97;;;5.81;82.89
18137;BME280;9194;42.632;23.298;2024-01-25T12:42:58;92797.00;;;5.87;80.10
18137;BME280;9194;42.632;23.298;2024-01-25T12:48:00;92779.69;;;6.15;77.99
18137;BME280;9194;42.632;23.298;2024-01-25T12:53:02;92765.03;;;6.23;74.67
18137;BME280;9194;42.632;23.298;2024-01-25T12:58:03;92761.22;;;6.66;74.96
18137;BME280;9194;42.632;23.298;2024-01-25T13:03:05;92757.38;;;6.49;73.09
18137;BME280;9194;42.632;23.298;2024-01-25T13:08:07;92754.16;;;6.34;72.08
18137;BME280;9194;42.632;23.298;2024-01-25T13:13:08;92751.81;;;6.04;75.10
18137;BME280;9194;42.632;23.298;2024-01-25T13:18:09;92756.50;;;5.94;78.54
18137;BME280;9194;42.632;23.298;2024-01-25T13:23:11;92754.50;;;5.90;76.12
18137;BME280;9194;42.632;23.298;2024-01-25T13:28:12;92776.03;;;5.75;79.45
18137;BME280;9194;42.632;23.298;2024-01-25T13:33:13;92785.50;;;5.90;79.12
18137;BME280;9194;42.632;23.298;2024-01-25T13:38:15;92760.75;;;6.08;79.78
18137;BME280;9194;42.632;23.298;2024-01-25T13:43:17;92746.41;;;5.99;81.60
18137;BME280;9194;42.632;23.298;2024-01-25T13:48:18;92756.44;;;6.15;78.01
18137;BME280;9194;42.632;23.298;2024-01-25T13:53:20;92754.16;;;5.99;78.57
18137;BME280;9194;42.632;23.298;2024-01-25T13:58:21;92760.34;;;5.77;82.23
18137;BME280;9194;42.632;23.298;2024-01-25T14:03:22;92744.47;;;5.80;80.13
18137;BME280;9194;42.632;23.298;2024-01-25T14:08:23;92751.28;;;5.60;82.16
18137;BME280;9194;42.632;23.298;2024-01-25T14:13:25;92772.19;;;5.65;83.58
18137;BME280;9194;42.632;23.298;2024-01-25T14:18:27;92782.13;;;5.68;85.67
18137;BME280;9194;42.632;23.298;2024-01-25T14:23:30;92788.09;;;5.68;83.78
18137;BME280;9194;42.632;23.298;2024-01-25T14:28:31;92806.44;;;5.52;84.28
18137;BME280;9194;42.632;23.298;2024-01-25T14:33:32;92776.63;;;5.50;85.93
18137;BME280;9194;42.632;23.298;2024-01-25T14:38:34;92778.84;;;5.53;85.33
18137;BME280;9194;42.632;23.298;2024-01-25T14:43:37;92787.03;;;5.35;87.61
18137;BME280;9194;42.632;23.298;2024-01-25T14:48:38;92784.25;;;5.36;86.49
18137;BME280;9194;42.632;23.298;2024-01-25T14:53:39;92780.22;;;5.27;89.43
18137;BME280;9194;42.632;23.298;2024-01-25T14:58:41;92776.91;;;5.33;87.30
18137;BME280;9194;42.632;23.298;2024-01-25T15:03:42;92770.19;;;5.39;85.47
18137;BME280;9194;42.632;23.298;2024-01-25T15:08:43;92785.38;;;5.27;88.25
18137;BME280;9194;42.632;23.298;2024-01-25T15:13:44;92774.72;;;5.58;82.36
18137;BME280;9194;42.632;23.298;2024-01-25T15:18:46;92758.25;;;5.38;86.14
18137;BME280;9194;42.632;23.298;2024-01-25T15:23:47;92784.75;;;5.47;84.79
18137;BME280;9194;42.632;23.298;2024-01-25T15:28:49;92777.19;;;5.45;86.26
18137;BME280;9194;42.632;23.298;2024-01-25T15:33:50;92797.41;;;5.20;90.05
18137;BME280;9194;42.632;23.298;2024-01-25T15:38:51;92794.66;;;5.22;90.35
18137;BME280;9194;42.632;23.298;2024-01-25T15:43:53;92793.22;;;5.19;93.79
18137;BME280;9194;42.632;23.298;2024-01-25T15:48:54;92786.06;;;5.15;91.79
18137;BME280;9194;42.632;23.298;2024-01-25T15:53:56;92769.69;;;5.08;93.76
18137;BME280;9194;42.632;23.298;2024-01-25T15:58:58;92784.53;;;4.99;96.22
18137;BME280;9194;42.632;23.298;2024-01-25T16:03:59;92783.97;;;5.04;97.89
18137;BME280;9194;42.632;23.298;2024-01-25T16:09:01;92796.78;;;4.97;97.46
18137;BME280;9194;42.632;23.298;2024-01-25T16:14:03;92795.72;;;5.06;97.47
18137;BME280;9194;42.632;23.298;2024-01-25T16:19:04;92790.34;;;5.08;96.61
18137;BME280;9194;42.632;23.298;2024-01-25T16:24:06;92785.97;;;5.08;95.24
18137;BME280;9194;42.632;23.298;2024-01-25T16:29:07;92804.66;;;5.10;95.51
18137;BME280;9194;42.632;23.298;2024-01-25T16:34:08;92814.19;;;4.88;97.98
18137;BME280;9194;42.632;23.298;2024-01-25T16:39:10;92822.47;;;4.69;99.94
18137;BME280;9194;42.632;23.298;2024-01-25T16:44:11;92805.69;;;4.59;100.00
18137;BME280;9194;42.632;23.298;2024-01-25T16:49:12;92835.50;;;4.46;100.00
18137;BME280;9194;42.632;23.298;2024-01-25T16:54:14;92846.66;;;4.68;100.00
18137;BME280;9194;42.632;23.298;2024-01-25T16:59:15;92863.00;;;4.75;100.00
18137;BME280;9194;42.632;23.298;2024-01-25T17:04:16;92873.97;;;4.77;100.00
18137;BME280;9194;42.632;23.298;2024-01-25T17:09:19;92877.97;;;4.65;100.00
18137;BME280;9194;42.632;23.298;2024-01-25T17:14:22;92889.50;;;4.69;100.00
18137;BME280;9194;42.632;23.298;2024-01-25T17:19:25;92884.28;;;4.63;100.00
18137;BME280;9194;42.632;23.298;2024-01-25T17:24:26;92892.72;;;4.57;100.00
18137;BME280;9194;42.632;23.298;2024-01-25T17:29:27;92896.09;;;4.57;100.00
18137;BME280;9194;42.632;23.298;2024-01-25T17:34:28;92895.03;;;4.51;100.00
18137;BME280;9194;42.632;23.298;2024-01-25T17:39:30;92880.66;;;4.42;100.00
18137;BME280;9194;42.632;23.298;2024-01-25T17:44:31;92892.78;;;4.48;100.00
18137;BME280;9194;42.632;23.298;2024-01-25T17:49:32;92895.56;;;4.47;100.00
18137;BME280;9194;42.632;23.298;2024-01-25T17:54:33;92907.81;;;4.45;100.00
18137;BME280;9194;42.632;23.298;2024-01-25T17:59:35;92916.88;;;4.55;99.20
18137;BME280;9194;42.632;23.298;2024-01-25T18:04:36;92904.00;;;4.55;98.63
18137;BME280;9194;42.632;23.298;2024-01-25T18:09:37;92897.31;;;4.61;97.52
18137;BME280;9194;42.632;23.298;2024-01-25T18:14:38;92903.56;;;4.67;95.89
18137;BME280;9194;42.632;23.298;2024-01-25T18:19:40;92873.66;;;4.72;93.03
18137;BME280;9194;42.632;23.298;2024-01-25T18:24:42;92868.72;;;4.71;93.44
18137;BME280;9194;42.632;23.298;2024-01-25T18:29:43;92880.97;;;4.69;92.72
18137;BME280;9194;42.632;23.298;2024-01-25T18:34:45;92878.06;;;4.57;94.24
18137;BME280;9194;42.632;23.298;2024-01-25T18:39:46;92876.63;;;4.69;93.10
18137;BME280;9194;42.632;23.298;2024-01-25T18:44:47;92886.84;;;4.77;91.92
18137;BME280;9194;42.632;23.298;2024-01-25T18:49:49;92893.50;;;4.72;89.76
18137;BME280;9194;42.632;23.298;2024-01-25T18:54:50;92869.84;;;4.68;91.64
18137;BME280;9194;42.632;23.298;2024-01-25T18:59:52;92887.28;;;4.81;88.54
18137;BME280;9194;42.632;23.298;2024-01-25T19:04:53;92897.97;;;4.63;93.08
18137;BME280;9194;42.632;23.298;2024-01-25T19:09:56;92888.97;;;4.74;90.83
18137;BME280;9194;42.632;23.298;2024-01-25T19:14:57;92885.59;;;4.73;91.53
18137;BME280;9194;42.632;23.298;2024-01-25T19:20:04;92873.63;;;4.66;91.34
18137;BME280;9194;42.632;23.298;2024-01-25T19:25:06;92861.06;;;4.63;92.15
18137;BME280;9194;42.632;23.298;2024-01-25T19:30:08;92875.22;;;4.52;95.51
18137;BME280;9194;42.632;23.298;2024-01-25T19:35:10;92894.66;;;4.54;93.77
18137;BME280;9194;42.632;23.298;2024-01-25T19:40:11;92884.72;;;4.51;95.23
18137;BME280;9194;42.632;23.298;2024-01-25T19:45:13;92885.88;;;4.49;95.54
18137;BME280;9194;42.632;23.298;2024-01-25T19:50:14;92893.44;;;4.36;96.76
18137;BME280;9194;42.632;23.298;2024-01-25T19:55:15;92898.75;;;4.49;95.15
18137;BME280;9194;42.632;23.298;2024-01-25T20:00:17;92894.84;;;4.38;98.17
18137;BME280;9194;42.632;23.298;2024-01-25T20:05:19;92897.78;;;4.35;99.68
18137;BME280;9194;42.632;23.298;2024-01-25T20:10:20;92907.47;;;4.33;98.67
18137;BME280;9194;42.632;23.298;2024-01-25T20:15:21;92910.03;;;4.33;98.52
18137;BME280;9194;42.632;23.298;2024-01-25T20:20:24;92892.06;;;4.25;99.62
18137;BME280;9194;42.632;23.298;2024-01-25T20:25:25;92875.13;;;4.31;98.60
18137;BME280;9194;42.632;23.298;2024-01-25T20:30:26;92903.00;;;4.27;97.80
18137;BME280;9194;42.632;23.298;2024-01-25T20:35:29;92895.72;;;4.16;98.79
18137;BME280;9194;42.632;23.298;2024-01-25T20:40:30;92914.66;;;4.23;97.42
18137;BME280;9194;42.632;23.298;2024-01-25T20:45:32;92914.38;;;4.18;95.68
18137;BME280;9194;42.632;23.298;2024-01-25T20:50:35;92896.78;;;4.07;97.14
18137;BME280;9194;42.632;23.298;2024-01-25T20:55:36;92899.03;;;3.87;98.25
18137;BME280;9194;42.632;23.298;2024-01-25T21:00:38;92899.41;;;3.84;96.22
18137;BME280;9194;42.632;23.298;2024-01-25T21:05:40;92889.78;;;3.78;97.38
18137;BME280;9194;42.632;23.298;2024-01-25T21:10:42;92903.84;;;3.67;98.44
18137;BME280;9194;42.632;23.298;2024-01-25T21:15:43;92896.25;;;3.51;100.00
18137;BME280;9194;42.632;23.298;2024-01-25T21:20:45;92895.56;;;3.57;97.39
18137;BME280;9194;42.632;23.298;2024-01-25T21:25:46;92909.41;;;3.56;98.04
18137;BME280;9194;42.632;23.298;2024-01-25T21:30:47;92907.91;;;3.62;97.70
18137;BME280;9194;42.632;23.298;2024-01-25T21:35:48;92922.94;;;3.73;93.51
18137;BME280;9194;42.632;23.298;2024-01-25T21:40:50;92913.94;;;3.54;94.74
18137;BME280;9194;42.632;23.298;2024-01-25T21:45:51;92915.72;;;3.54;93.38
18137;BME280;9194;42.632;23.298;2024-01-25T21:50:53;92922.78;;;3.52;93.02
18137;BME280;9194;42.632;23.298;2024-01-25T21:55:54;92900.28;;;3.54;91.67
18137;BME280;9194;42.632;23.298;2024-01-25T22:00:55;92908.19;;;3.44;93.09
18137;BME280;9194;42.632;23.298;2024-01-25T22:05:57;92915.03;;;3.37;93.06
18137;BME280;9194;42.632;23.298;2024-01-25T22:10:58;92918.41;;;3.38;94.86
18137;BME280;9194;42.632;23.298;2024-01-25T22:15:59;92910.72;;;3.52;91.94
18137;BME280;9194;42.632;23.298;2024-01-25T22:21:01;92930.91;;;3.41;92.90
18137;BME280;9194;42.632;23.298;2024-01-25T22:26:02;92925.53;;;3.50;94.09
18137;BME280;9194;42.632;23.298;2024-01-25T22:31:04;92922.75;;;3.60;91.69
18137;BME280;9194;42.632;23.298;2024-01-25T22:36:10;92921.47;;;3.56;95.07
18137;BME280;9194;42.632;23.298;2024-01-25T22:41:12;92933.84;;;3.60;92.98
18137;BME280;9194;42.632;23.298;2024-01-25T22:46:13;92921.78;;;3.61;95.58
18137;BME280;9194;42.632;23.298;2024-01-25T22:51:14;92915.34;;;3.57;93.16
18137;BME280;9194;42.632;23.298;2024-01-25T22:56:16;92902.66;;;3.55;92.90
18137;BME280;9194;42.632;23.298;2024-01-25T23:01:17;92891.06;;;3.59;90.32
18137;BME280;9194;42.632;23.298;2024-01-25T23:06:18;92894.56;;;3.66;91.62
18137;BME280;9194;42.632;23.298;2024-01-25T23:11:19;92893.28;;;3.62;88.41
18137;BME280;9194;42.632;23.298;2024-01-25T23:16:21;92903.84;;;3.45;90.35
18137;BME280;9194;42.632;23.298;2024-01-25T23:21:22;92899.78;;;3.50;89.59
18137;BME280;9194;42.632;23.298;2024-01-25T23:26:23;92902.38;;;3.50;91.06
18137;BME280;9194;42.632;23.298;2024-01-25T23:31:25;92901.34;;;3.59;89.73
18137;BME280;9194;42.632;23.298;2024-01-25T23:36:26;92891.09;;;3.51;89.89
18137;BME280;9194;42.632;23.298;2024-01-25T23:41:27;92908.78;;;3.54;90.88
18137;BME280;9194;42.632;23.298;2024-01-25T23:46:28;92896.78;;;3.47;92.32
18137;BME280;9194;42.632;23.298;2024-01-25T23:51:30;92902.59;;;3.41;91.92
18137;BME280;9194;42.632;23.298;2024-01-25T23:56:31;92906.09;;;3.48;90.23
